createdAt,value
2023-04-20T00:03:14.057Z,2.91
2023-04-20T00:06:55.832Z,2.97
2023-04-20T00:10:24.954Z,3.02
2023-04-20T00:14:12.615Z,3.08
2023-04-20T00:18:01.803Z,3.15
2023-04-20T00:21:50.892Z,3.16
2023-04-20T00:25:03.825Z,3.18
2023-04-20T00:28:42.963Z,3.29
2023-04-20T00:32:32.170Z,3.35
2023-04-20T00:36:21.314Z,3.39
2023-04-20T00:39:31.354Z,3.43
2023-04-20T00:43:20.649Z,3.47
2023-04-20T00:47:00.582Z,3.58
2023-04-20T00:50:32.040Z,3.66
2023-04-20T00:54:08.920Z,3.70
2023-04-20T00:57:41.069Z,3.73
2023-04-20T01:01:19.329Z,3.77
2023-04-20T01:04:59.258Z,3.82
2023-04-20T01:08:25.903Z,3.88
2023-04-20T01:12:04.942Z,3.93
2023-04-20T01:15:26.982Z,3.97
2023-04-20T01:19:04.359Z,4.02
2023-04-20T01:22:58.660Z,4.07
2023-04-20T01:26:06.596Z,4.05
2023-04-20T01:29:55.693Z,4.05
2023-04-20T01:33:24.427Z,4.05
2023-04-20T01:37:02.457Z,4.06
2023-04-20T01:40:27.343Z,4.09
2023-04-20T01:44:09.078Z,4.12
2023-04-20T01:47:46.733Z,4.14
2023-04-20T01:51:16.301Z,4.14
2023-04-20T01:54:58.218Z,4.16
2023-04-20T01:58:29.603Z,4.15
2023-04-20T02:02:03.977Z,4.15
2023-04-20T02:05:28.511Z,4.15
2023-04-20T02:08:52.702Z,4.15
2023-04-20T02:12:09.711Z,4.16
2023-04-20T02:15:38.687Z,4.15
2023-04-20T02:19:06.579Z,4.13
2023-04-20T02:22:24.165Z,4.12
2023-04-20T02:26:13.275Z,4.12
2023-04-20T02:29:45.085Z,4.11
2023-04-20T02:32:49.913Z,4.07
2023-04-20T02:36:14.953Z,4.02
2023-04-20T02:39:28.768Z,3.99
2023-04-20T02:42:38.768Z,3.98
2023-04-20T02:46:09.766Z,3.97
2023-04-20T02:49:34.629Z,3.96
2023-04-20T02:53:10.473Z,3.97
2023-04-20T02:56:41.519Z,4.00
2023-04-20T03:00:24.251Z,4.04
2023-04-20T03:04:04.323Z,4.04
2023-04-20T03:07:38.825Z,4.02
2023-04-20T03:11:19.554Z,4.02
2023-04-20T03:14:49.310Z,4.03
2023-04-20T03:18:16.884Z,4.02
2023-04-20T03:21:59.082Z,4.03
2023-04-20T03:25:14.558Z,4.02
2023-04-20T03:28:56.982Z,4.00
2023-04-20T03:32:08.529Z,3.99
2023-04-20T03:35:44.317Z,3.98
2023-04-20T03:39:34.629Z,4.01
2023-04-20T03:43:16.918Z,4.05
2023-04-20T03:46:50.328Z,4.07
2023-04-20T03:50:19.423Z,4.10
2023-04-20T03:53:35.216Z,4.09
2023-04-20T03:57:15.391Z,4.11
2023-04-20T04:00:24.193Z,4.13
2023-04-20T04:03:31.055Z,4.14
2023-04-20T04:06:22.296Z,4.16
2023-04-20T04:09:36.239Z,4.19
2023-04-20T04:12:59.497Z,4.24
2023-04-20T04:15:57.174Z,4.27
2023-04-20T04:18:32.467Z,4.31
2023-04-20T04:21:06.922Z,4.35
2023-04-20T04:24:04.988Z,4.39
2023-04-20T04:27:05.503Z,4.45
2023-04-20T04:29:45.697Z,4.50
2023-04-20T04:32:26.464Z,4.54
2023-04-20T04:35:26.345Z,4.58
2023-04-20T04:38:33.662Z,4.61
2023-04-20T04:41:49.517Z,4.61
2023-04-20T04:44:39.644Z,4.62
2023-04-20T04:47:14.552Z,4.62
2023-04-20T04:49:54.268Z,4.64
2023-04-20T04:52:37.939Z,4.68
2023-04-20T04:55:48.011Z,4.72
2023-04-20T04:58:31.317Z,4.79
2023-04-20T05:01:27.789Z,4.82
2023-04-20T05:04:34.625Z,4.86
2023-04-20T05:07:21.454Z,4.85
2023-04-20T05:10:29.145Z,4.86
2023-04-20T05:13:30.704Z,4.89
2023-04-20T05:16:30.239Z,4.90
2023-04-20T05:19:22.450Z,4.94
2023-04-20T05:22:54.297Z,4.98
2023-04-20T05:26:06.542Z,4.97
2023-04-20T05:28:43.098Z,4.98
2023-04-20T05:31:45.721Z,4.98
2023-04-20T05:34:26.111Z,5.00
2023-04-20T05:37:13.523Z,5.03
2023-04-20T05:39:54.917Z,5.06
2023-04-20T05:42:52.580Z,5.11
2023-04-20T05:45:29.940Z,5.07
2023-04-20T05:48:33.982Z,5.05
2023-04-20T05:51:34.505Z,5.04
2023-04-20T05:54:28.496Z,5.03
2023-04-20T05:57:05.673Z,5.02
2023-04-20T05:59:56.264Z,5.05
2023-04-20T06:02:35.853Z,5.13
2023-04-20T06:05:34.398Z,5.18
2023-04-20T06:08:50.972Z,5.24
2023-04-20T06:11:36.279Z,5.28
2023-04-20T06:14:18.272Z,5.33
2023-04-20T06:17:21.301Z,5.43
2023-04-20T06:20:23.141Z,5.53
2023-04-20T06:23:28.578Z,5.62
2023-04-20T06:26:25.518Z,5.70
2023-04-20T06:29:04.575Z,5.81
2023-04-20T06:31:58.406Z,5.92
2023-04-20T06:34:51.284Z,6.05
2023-04-20T06:37:38.991Z,6.13
2023-04-20T06:40:43.240Z,6.17
2023-04-20T06:43:50.093Z,6.19
2023-04-20T06:46:36.470Z,6.17
2023-04-20T06:49:16.645Z,6.16
2023-04-20T06:52:34.184Z,6.20
2023-04-20T06:55:49.256Z,6.25
2023-04-20T06:58:25.809Z,6.29
2023-04-20T07:01:03.504Z,6.32
2023-04-20T07:03:54.310Z,6.36
2023-04-20T07:06:43.267Z,6.41
2023-04-20T07:09:23.425Z,6.46
2023-04-20T07:12:02.867Z,6.57
2023-04-20T07:14:43.220Z,6.64
2023-04-20T07:17:20.500Z,6.71
2023-04-20T07:20:26.180Z,6.81
2023-04-20T07:23:05.187Z,6.95
2023-04-20T07:26:17.794Z,7.10
2023-04-20T07:28:58.470Z,7.26
2023-04-20T07:31:52.436Z,7.42
2023-04-20T07:34:30.132Z,7.50
2023-04-20T07:37:10.182Z,7.53
2023-04-20T07:39:43.682Z,7.58
2023-04-20T07:42:15.546Z,7.64
2023-04-20T07:44:59.072Z,7.71
2023-04-20T07:47:51.541Z,7.78
2023-04-20T07:50:26.649Z,7.89
2023-04-20T07:53:03.751Z,8.03
2023-04-20T07:55:37.464Z,8.16
2023-04-20T07:58:06.332Z,8.32
2023-04-20T08:00:38.491Z,8.48
2023-04-20T08:03:23.384Z,8.67
2023-04-20T08:05:57.768Z,8.91
2023-04-20T08:08:47.961Z,9.10
2023-04-20T08:11:19.506Z,9.27
2023-04-20T08:14:11.131Z,9.36
2023-04-20T08:16:55.072Z,9.50
2023-04-20T08:19:26.872Z,9.63
2023-04-20T08:22:01.502Z,9.75
2023-04-20T08:24:41.402Z,9.87
2023-04-20T08:27:32.413Z,9.94
2023-04-20T08:30:08.977Z,9.92
2023-04-20T08:32:45.471Z,9.90
2023-04-20T08:35:41.977Z,9.95
2023-04-20T08:38:32.902Z,10.05
2023-04-20T08:41:09.589Z,10.19
2023-04-20T08:43:50.936Z,10.35
2023-04-20T08:46:34.041Z,10.55
2023-04-20T08:49:24.554Z,10.64
2023-04-20T08:52:10.957Z,10.66
2023-04-20T08:54:56.866Z,10.62
2023-04-20T08:57:35.457Z,10.58
2023-04-20T09:00:16.228Z,10.55
2023-04-20T09:03:02.066Z,10.50
2023-04-20T09:05:53.015Z,10.44
2023-04-20T09:08:34.805Z,10.40
2023-04-20T09:11:39.233Z,10.50
2023-04-20T09:14:24.820Z,10.58
2023-04-20T09:17:14.928Z,10.74
2023-04-20T09:20:06.827Z,10.89
2023-04-20T09:22:47.487Z,11.02
2023-04-20T09:25:32.656Z,11.19
2023-04-20T09:28:24.483Z,11.22
2023-04-20T09:30:56.445Z,11.18
2023-04-20T09:33:41.309Z,11.22
2023-04-20T09:36:26.789Z,11.29
2023-04-20T09:39:16.302Z,11.44
2023-04-20T09:41:51.212Z,11.62
2023-04-20T09:44:30.111Z,11.78
2023-04-20T09:47:06.782Z,11.95
2023-04-20T09:49:53.195Z,12.13
2023-04-20T09:52:30.469Z,12.26
2023-04-20T09:55:14.511Z,12.34
2023-04-20T09:57:50.257Z,12.41
2023-04-20T10:00:27.560Z,12.53
2023-04-20T10:03:05.233Z,12.59
2023-04-20T10:05:39.859Z,12.78
2023-04-20T10:08:20.595Z,12.93
2023-04-20T10:10:55.255Z,13.15
2023-04-20T10:13:34.191Z,13.45
2023-04-20T10:16:17.222Z,13.65
2023-04-20T10:19:07.711Z,13.96
2023-04-20T10:21:48.412Z,14.13
2023-04-20T10:24:31.593Z,14.37
2023-04-20T10:27:20.546Z,14.59
2023-04-20T10:29:54.799Z,14.67
2023-04-20T10:32:28.046Z,14.93
2023-04-20T10:35:06.624Z,15.34
2023-04-20T10:37:47.959Z,15.72
2023-04-20T10:40:16.634Z,15.96
2023-04-20T10:42:46.159Z,16.17
2023-04-20T10:45:16.875Z,16.34
2023-04-20T10:47:45.887Z,16.58
2023-04-20T10:50:18.368Z,16.78
2023-04-20T10:52:46.917Z,16.90
2023-04-20T10:55:20.835Z,17.06
2023-04-20T10:57:52.483Z,17.26
2023-04-20T11:00:26.571Z,17.47
2023-04-20T11:02:59.310Z,17.57
2023-04-20T11:05:28.093Z,17.71
2023-04-20T11:08:03.395Z,17.63
2023-04-20T11:10:42.826Z,17.69
2023-04-20T11:13:25.609Z,17.82
2023-04-20T11:15:54.033Z,18.03
2023-04-20T11:18:25.163Z,18.26
2023-04-20T11:20:55.290Z,18.46
2023-04-20T11:23:24.901Z,18.70
2023-04-20T11:25:57.475Z,18.96
2023-04-20T11:28:30.550Z,19.09
2023-04-20T11:30:59.030Z,19.20
2023-04-20T11:33:31.665Z,19.20
2023-04-20T11:36:01.121Z,19.31
2023-04-20T11:38:34.620Z,19.40
2023-04-20T11:41:08.067Z,19.18
2023-04-20T11:43:36.382Z,19.37
2023-04-20T11:46:17.144Z,19.50
2023-04-20T11:48:49.529Z,19.45
2023-04-20T11:51:17.893Z,19.37
2023-04-20T11:53:46.886Z,19.64
2023-04-20T11:56:15.126Z,19.93
2023-04-20T11:58:43.289Z,20.00
2023-04-20T12:01:11.605Z,20.17
2023-04-20T12:03:40.561Z,20.34
2023-04-20T12:06:09.282Z,20.56
2023-04-20T12:08:37.672Z,20.73
2023-04-20T12:11:06.039Z,20.71
2023-04-20T12:13:34.209Z,20.76
2023-04-20T12:16:02.405Z,20.82
2023-04-20T12:18:30.758Z,20.92
2023-04-20T12:20:59.952Z,21.16
2023-04-20T12:23:28.328Z,21.19
2023-04-20T12:25:56.919Z,20.85
2023-04-20T12:28:25.288Z,20.70
2023-04-20T12:30:53.497Z,20.54
2023-04-20T12:33:21.733Z,20.48
2023-04-20T12:35:49.910Z,20.83
2023-04-20T12:38:18.288Z,21.32
2023-04-20T12:40:46.765Z,21.26
2023-04-20T12:43:15.044Z,20.87
2023-04-20T12:45:43.207Z,20.73
2023-04-20T12:48:11.506Z,20.50
2023-04-20T12:50:39.962Z,20.22
2023-04-20T12:53:08.147Z,19.97
2023-04-20T12:55:36.410Z,19.96
2023-04-20T12:58:04.585Z,19.68
2023-04-20T13:00:33.170Z,19.37
2023-04-20T13:03:02.116Z,19.25
2023-04-20T13:05:30.737Z,19.19
2023-04-20T13:07:59.030Z,19.16
2023-04-20T13:10:27.388Z,19.12
2023-04-20T13:13:04.779Z,19.23
2023-04-20T13:18:06.635Z,18.96
2023-04-20T13:20:35.049Z,18.84
2023-04-20T13:23:04.326Z,18.89
2023-04-20T13:25:33.618Z,18.91
2023-04-20T13:28:03.450Z,19.02
2023-04-20T13:30:32.372Z,19.17
2023-04-20T13:33:00.881Z,19.40
2023-04-20T13:35:29.086Z,19.70
2023-04-20T13:37:57.456Z,19.70
2023-04-20T13:40:26.243Z,19.41
2023-04-20T13:42:54.832Z,19.14
2023-04-20T13:45:23.715Z,18.79
2023-04-20T13:47:54.981Z,18.47
2023-04-20T13:50:23.645Z,18.14
2023-04-20T13:52:54.889Z,17.88
2023-04-20T13:55:24.347Z,17.67
2023-04-20T13:57:53.595Z,17.52
2023-04-20T14:00:23.714Z,17.59
2023-04-20T14:02:52.355Z,17.98
2023-04-20T14:05:20.972Z,18.73
2023-04-20T14:07:49.150Z,19.45
2023-04-20T14:10:17.736Z,19.71
2023-04-20T14:12:46.208Z,19.77
2023-04-20T14:15:14.482Z,19.83
2023-04-20T14:17:42.687Z,19.65
2023-04-20T14:20:11.874Z,19.50
2023-04-20T14:22:40.040Z,19.36
2023-04-20T14:25:08.715Z,19.13
2023-04-20T14:27:36.986Z,18.98
2023-04-20T14:30:06.271Z,19.23
2023-04-20T14:32:35.501Z,19.65
2023-04-20T14:35:05.601Z,20.06
2023-04-20T14:37:34.286Z,20.56
2023-04-20T14:40:02.555Z,20.60
2023-04-20T14:42:30.939Z,20.37
2023-04-20T14:44:59.105Z,20.63
2023-04-20T14:47:27.321Z,20.91
2023-04-20T14:49:55.460Z,21.21
2023-04-20T14:52:23.832Z,21.05
2023-04-20T14:54:51.998Z,20.80
2023-04-20T14:57:20.692Z,20.92
2023-04-20T14:59:48.855Z,20.74
2023-04-20T15:02:18.735Z,20.39
2023-04-20T15:04:47.490Z,20.47
2023-04-20T15:07:15.825Z,20.79
2023-04-20T15:09:43.998Z,20.87
2023-04-20T15:12:12.374Z,20.62
2023-04-20T15:14:40.751Z,20.22
2023-04-20T15:17:09.033Z,20.00
2023-04-20T15:19:37.406Z,20.07
2023-04-20T15:22:05.698Z,19.93
2023-04-20T15:24:33.955Z,20.10
2023-04-20T15:27:03.541Z,20.52
2023-04-20T15:29:33.581Z,21.11
2023-04-20T15:32:01.798Z,21.65
2023-04-20T15:34:30.328Z,22.20
2023-04-20T15:36:58.476Z,22.86
2023-04-20T15:39:26.673Z,23.48
2023-04-20T15:41:54.860Z,23.73
2023-04-20T15:44:23.023Z,23.68
2023-04-20T15:46:51.297Z,22.88
2023-04-20T15:49:20.695Z,22.13
2023-04-20T15:51:48.967Z,21.51
2023-04-20T15:54:17.445Z,21.66
2023-04-20T15:56:46.234Z,21.94
2023-04-20T15:59:14.405Z,22.11
2023-04-20T16:01:42.630Z,22.07
2023-04-20T16:04:11.432Z,21.92
2023-04-20T16:06:41.285Z,21.78
2023-04-20T16:09:09.349Z,21.51
2023-04-20T16:11:37.520Z,21.08
2023-04-20T16:14:05.999Z,20.58
2023-04-20T16:16:34.336Z,20.02
2023-04-20T16:19:02.760Z,19.56
2023-04-20T16:21:30.921Z,19.22
2023-04-20T16:23:59.200Z,18.83
2023-04-20T16:26:27.372Z,18.53
2023-04-20T16:28:55.751Z,18.34
2023-04-20T16:31:24.207Z,18.19
2023-04-20T16:33:52.812Z,17.99
2023-04-20T16:36:21.496Z,17.70
2023-04-20T16:38:49.668Z,17.47
2023-04-20T16:41:18.163Z,17.34
2023-04-20T16:43:47.039Z,17.21
2023-04-20T16:46:16.627Z,17.15
2023-04-20T16:48:45.231Z,17.02
2023-04-20T16:51:13.811Z,16.91
2023-04-20T16:53:43.109Z,16.82
2023-04-20T16:56:12.401Z,16.72
2023-04-20T16:58:40.784Z,16.62
2023-04-20T17:01:09.480Z,16.52
2023-04-20T17:03:38.289Z,16.36
2023-04-20T17:06:09.936Z,16.24
2023-04-20T17:08:38.496Z,16.15
2023-04-20T17:11:07.074Z,16.06
2023-04-20T17:13:35.653Z,15.98
2023-04-20T17:16:04.514Z,15.88
2023-04-20T17:18:34.457Z,15.75
2023-04-20T17:21:02.942Z,15.64
2023-04-20T17:23:34.180Z,15.57
2023-04-20T17:26:03.478Z,15.49
2023-04-20T17:28:32.268Z,15.43
2023-04-20T17:31:01.059Z,15.35
2023-04-20T17:33:29.697Z,15.28
2023-04-20T17:36:01.289Z,15.21
2023-04-20T17:38:30.482Z,15.16
2023-04-20T17:41:01.217Z,15.11
2023-04-20T17:43:29.804Z,15.07
2023-04-20T17:46:00.936Z,15.02
2023-04-20T17:48:29.620Z,14.93
2023-04-20T17:51:00.365Z,14.85
2023-04-20T17:53:31.807Z,14.76
2023-04-20T17:56:03.773Z,14.69
2023-04-20T17:58:32.900Z,14.61
2023-04-20T18:01:01.586Z,14.53
2023-04-20T18:03:33.126Z,14.48
2023-04-20T18:06:04.847Z,14.39
2023-04-20T18:08:34.813Z,14.28
2023-04-20T18:11:05.853Z,14.15
2023-04-20T18:13:41.966Z,14.00
2023-04-20T18:16:13.645Z,13.86
2023-04-20T18:18:49.879Z,13.74
2023-04-20T18:21:18.563Z,13.63
2023-04-20T18:23:49.909Z,13.51
2023-04-20T18:26:25.049Z,13.37
2023-04-20T18:28:56.592Z,13.24
2023-04-20T18:31:27.983Z,13.13
2023-04-20T18:33:59.927Z,13.02
2023-04-20T18:36:34.017Z,12.92
2023-04-20T18:39:12.943Z,12.81
2023-04-20T18:41:54.114Z,12.70
2023-04-20T18:44:28.426Z,12.57
2023-04-20T18:47:00.032Z,12.44
2023-04-20T18:49:35.117Z,12.32
2023-04-20T18:52:06.162Z,12.17
2023-04-20T18:54:57.789Z,12.04
2023-04-20T18:57:32.737Z,11.92
2023-04-20T19:00:11.398Z,11.82
2023-04-20T19:02:46.610Z,11.73
2023-04-20T19:05:44.024Z,11.66
2023-04-20T19:08:18.136Z,11.63
2023-04-20T19:11:12.241Z,11.60
2023-04-20T19:13:48.684Z,11.58
2023-04-20T19:16:25.203Z,11.55
2023-04-20T19:19:03.053Z,11.50
2023-04-20T19:21:40.009Z,11.46
2023-04-20T19:24:20.695Z,11.40
2023-04-20T19:26:55.115Z,11.32
2023-04-20T19:29:35.572Z,11.27
2023-04-20T19:32:21.646Z,11.21
2023-04-20T19:34:57.924Z,11.13
2023-04-20T19:37:34.300Z,11.06
2023-04-20T19:40:16.824Z,11.00
2023-04-20T19:42:50.204Z,10.93
2023-04-20T19:45:23.896Z,10.88
2023-04-20T19:48:00.716Z,10.83
2023-04-20T19:50:42.387Z,10.76
2023-04-20T19:53:14.111Z,10.67
2023-04-20T19:55:48.884Z,10.57
2023-04-20T19:58:20.289Z,10.48
2023-04-20T20:00:54.385Z,10.38
2023-04-20T20:03:35.225Z,10.27
2023-04-20T20:06:09.483Z,10.16
2023-04-20T20:08:50.052Z,10.05
2023-04-20T20:11:25.595Z,9.97
2023-04-20T20:14:09.340Z,9.89
2023-04-20T20:16:57.464Z,9.75
2023-04-20T20:19:31.613Z,9.64
2023-04-20T20:22:05.588Z,9.57
2023-04-20T20:24:46.967Z,9.45
2023-04-20T20:27:28.451Z,9.34
2023-04-20T20:30:14.034Z,9.26
2023-04-20T20:32:57.392Z,9.18
2023-04-20T20:35:31.383Z,9.07
2023-04-20T20:38:10.497Z,8.98
2023-04-20T20:40:47.074Z,8.91
2023-04-20T20:43:30.292Z,8.84
2023-04-20T20:46:07.210Z,8.77
2023-04-20T20:48:48.447Z,8.69
2023-04-20T20:51:28.599Z,8.60
2023-04-20T20:54:06.514Z,8.54
2023-04-20T20:56:46.761Z,8.49
2023-04-20T20:59:18.423Z,8.46
2023-04-20T21:02:12.113Z,8.45
2023-04-20T21:04:53.586Z,8.44
2023-04-20T21:07:50.515Z,8.42
2023-04-20T21:10:32.096Z,8.41
2023-04-20T21:13:08.050Z,8.43
2023-04-20T21:15:45.531Z,8.44
2023-04-20T21:18:25.695Z,8.46
2023-04-20T21:21:06.055Z,8.46
2023-04-20T21:23:48.870Z,8.47
2023-04-20T21:26:35.931Z,8.49
2023-04-20T21:29:15.945Z,8.53
2023-04-20T21:32:09.933Z,8.55
2023-04-20T21:35:04.717Z,8.57
2023-04-20T21:37:44.249Z,8.59
2023-04-20T21:40:41.574Z,8.60
2023-04-20T21:43:26.892Z,8.59
2023-04-20T21:46:27.750Z,8.60
2023-04-20T21:49:08.285Z,8.61
2023-04-20T21:51:49.356Z,8.60
2023-04-20T21:54:53.519Z,8.59
2023-04-20T21:57:33.742Z,8.54
2023-04-20T22:00:15.820Z,8.50
2023-04-20T22:02:59.374Z,8.45
2023-04-20T22:05:43.803Z,8.38
2023-04-20T22:08:52.533Z,8.32
2023-04-20T22:11:49.912Z,8.23
2023-04-20T22:14:38.748Z,8.16
2023-04-20T22:17:22.424Z,8.07
2023-04-20T22:20:16.989Z,7.99
2023-04-20T22:23:10.944Z,7.94
2023-04-20T22:26:18.134Z,7.94
2023-04-20T22:28:55.728Z,7.92
2023-04-20T22:31:52.165Z,7.85
2023-04-20T22:34:41.223Z,7.76
2023-04-20T22:37:38.582Z,7.70
2023-04-20T22:40:30.625Z,7.64
2023-04-20T22:43:11.478Z,7.57
2023-04-20T22:46:22.808Z,7.51
2023-04-20T22:49:27.384Z,7.46
2023-04-20T22:52:15.625Z,7.42
2023-04-20T22:55:08.789Z,7.33
2023-04-20T22:58:00.200Z,7.24
2023-04-20T23:00:48.967Z,7.17
2023-04-20T23:03:33.514Z,7.15
2023-04-20T23:06:38.035Z,7.13
2023-04-20T23:09:42.355Z,7.08
2023-04-20T23:12:48.035Z,7.02
2023-04-20T23:15:40.035Z,6.99
2023-04-20T23:18:34.522Z,6.92
2023-04-20T23:21:35.515Z,6.85
2023-04-20T23:24:47.672Z,6.81
2023-04-20T23:27:58.746Z,6.77
2023-04-20T23:30:53.952Z,6.75
2023-04-20T23:34:11.458Z,6.66
2023-04-20T23:37:02.183Z,6.60
2023-04-20T23:40:23.128Z,6.56
2023-04-20T23:43:10.823Z,6.52
2023-04-20T23:46:10.136Z,6.52
2023-04-20T23:48:56.525Z,6.50
2023-04-20T23:51:47.477Z,6.46
2023-04-20T23:54:51.337Z,6.42
2023-04-20T23:58:00.268Z,6.35
